sensor_id;sensor_type;location;lat;lon;timestamp;pressure;altitude;pressure_sealevel;temperature;humidity
49377;BME280;35253;34.688;33.040;2023-01-06T00:01:28;101451.38;;;15.06;100.00
49377;BME280;35253;34.688;33.040;2023-01-06T00:03:54;101458.19;;;15.12;100.00
49377;BME280;35253;34.688;33.040;2023-01-06T00:06:22;101458.41;;;15.09;100.00
49377;BME280;35253;34.688;33.040;2023-01-06T00:08:54;101452.75;;;14.99;100.00
49377;BME280;35253;34.688;33.040;2023-01-06T00:11:20;101453.34;;;15.04;100.00
49377;BME280;35253;34.688;33.040;2023-01-06T00:13:46;101447.06;;;15.18;100.00
49377;BME280;35253;34.688;33.040;2023-01-06T00:16:13;101446.19;;;15.17;100.00
49377;BME280;35253;34.688;33.040;2023-01-06T00:18:39;101443.97;;;15.10;100.00
49377;BME280;35253;34.688;33.040;2023-01-06T00:21:05;101453.78;;;15.11;100.00
49377;BME280;35253;34.688;33.040;2023-01-06T00:23:31;101445.97;;;15.20;100.00
49377;BME280;35253;34.688;33.040;2023-01-06T00:25:57;101447.22;;;15.15;100.00
49377;BME280;35253;34.688;33.040;2023-01-06T00:28:23;101448.19;;;15.14;100.00
49377;BME280;35253;34.688;33.040;2023-01-06T00:30:48;101454.19;;;15.05;100.00
49377;BME280;35253;34.688;33.040;2023-01-06T00:33:14;101442.88;;;15.00;100.00
49377;BME280;35253;34.688;33.040;2023-01-06T00:35:39;101445.06;;;15.07;100.00
49377;BME280;35253;34.688;33.040;2023-01-06T00:38:04;101442.72;;;15.15;100.00
49377;BME280;35253;34.688;33.040;2023-01-06T00:40:30;101450.28;;;15.23;100.00
49377;BME280;35253;34.688;33.040;2023-01-06T00:42:55;101450.50;;;15.20;100.00
49377;BME280;35253;34.688;33.040;2023-01-06T00:45:21;101456.06;;;15.17;100.00
49377;BME280;35253;34.688;33.040;2023-01-06T00:47:46;101447.66;;;15.09;100.00
49377;BME280;35253;34.688;33.040;2023-01-06T00:50:12;101460.31;;;15.07;100.00
49377;BME280;35253;34.688;33.040;2023-01-06T00:52:37;101454.63;;;15.11;100.00
49377;BME280;35253;34.688;33.040;2023-01-06T00:55:02;101458.94;;;15.14;100.00
49377;BME280;35253;34.688;33.040;2023-01-06T00:57:28;101445.94;;;15.08;100.00
49377;BME280;35253;34.688;33.040;2023-01-06T00:59:54;101449.94;;;15.15;100.00
49377;BME280;35253;34.688;33.040;2023-01-06T01:02:19;101445.94;;;15.08;100.00
49377;BME280;35253;34.688;33.040;2023-01-06T01:04:45;101444.56;;;15.15;100.00
49377;BME280;35253;34.688;33.040;2023-01-06T01:07:10;101442.81;;;15.14;100.00
49377;BME280;35253;34.688;33.040;2023-01-06T01:09:36;101440.56;;;15.08;100.00
49377;BME280;35253;34.688;33.040;2023-01-06T01:12:01;101436.91;;;15.09;100.00
49377;BME280;35253;34.688;33.040;2023-01-06T01:14:44;101437.59;;;14.98;100.00
49377;BME280;35253;34.688;33.040;2023-01-06T01:17:11;101438.16;;;15.03;100.00
49377;BME280;35253;34.688;33.040;2023-01-06T01:19:37;101445.22;;;14.92;100.00
49377;BME280;35253;34.688;33.040;2023-01-06T01:22:03;101442.72;;;14.88;100.00
49377;BME280;35253;34.688;33.040;2023-01-06T01:24:29;101438.19;;;14.89;100.00
49377;BME280;35253;34.688;33.040;2023-01-06T01:26:54;101440.03;;;14.74;100.00
49377;BME280;35253;34.688;33.040;2023-01-06T01:29:20;101440.81;;;14.76;100.00
49377;BME280;35253;34.688;33.040;2023-01-06T01:31:45;101436.69;;;14.85;100.00
49377;BME280;35253;34.688;33.040;2023-01-06T01:34:12;101438.50;;;14.84;100.00
49377;BME280;35253;34.688;33.040;2023-01-06T01:36:38;101439.97;;;14.76;100.00
49377;BME280;35253;34.688;33.040;2023-01-06T01:39:04;101442.06;;;14.85;100.00
49377;BME280;35253;34.688;33.040;2023-01-06T01:41:30;101429.88;;;14.79;100.00
49377;BME280;35253;34.688;33.040;2023-01-06T01:43:56;101429.50;;;14.71;100.00
49377;BME280;35253;34.688;33.040;2023-01-06T01:46:24;101436.53;;;14.74;100.00
49377;BME280;35253;34.688;33.040;2023-01-06T01:48:51;101432.78;;;14.76;100.00
49377;BME280;35253;34.688;33.040;2023-01-06T01:51:18;101427.69;;;14.72;100.00
49377;BME280;35253;34.688;33.040;2023-01-06T01:53:46;101426.44;;;14.77;100.00
49377;BME280;35253;34.688;33.040;2023-01-06T01:56:13;101420.13;;;14.78;100.00
49377;BME280;35253;34.688;33.040;2023-01-06T01:58:47;101419.34;;;14.76;100.00
49377;BME280;35253;34.688;33.040;2023-01-06T02:01:15;101425.66;;;14.89;100.00
49377;BME280;35253;34.688;33.040;2023-01-06T02:03:40;101424.88;;;14.87;100.00
49377;BME280;35253;34.688;33.040;2023-01-06T02:06:08;101425.66;;;14.89;100.00
49377;BME280;35253;34.688;33.040;2023-01-06T02:08:38;101429.50;;;14.85;100.00
49377;BME280;35253;34.688;33.040;2023-01-06T02:11:05;101416.63;;;14.91;100.00
49377;BME280;35253;34.688;33.040;2023-01-06T02:13:31;101418.28;;;14.79;100.00
49377;BME280;35253;34.688;33.040;2023-01-06T02:16:11;101418.03;;;14.69;100.00
49377;BME280;35253;34.688;33.040;2023-01-06T02:34:04;101415.88;;;14.48;100.00
49377;BME280;35253;34.688;33.040;2023-01-06T02:42:06;101409.78;;;14.58;100.00
49377;BME280;35253;34.688;33.040;2023-01-06T02:47:31;101408.47;;;14.51;100.00
49377;BME280;35253;34.688;33.040;2023-01-06T02:50:10;101409.22;;;14.53;100.00
49377;BME280;35253;34.688;33.040;2023-01-06T02:52:45;101409.13;;;14.55;100.00
49377;BME280;35253;34.688;33.040;2023-01-06T02:57:56;101417.31;;;14.39;100.00
49377;BME280;35253;34.688;33.040;2023-01-06T03:00:29;101408.84;;;14.59;100.00
49377;BME280;35253;34.688;33.040;2023-01-06T03:02:58;101416.88;;;14.59;100.00
49377;BME280;35253;34.688;33.040;2023-01-06T03:05:24;101415.38;;;14.55;100.00
49377;BME280;35253;34.688;33.040;2023-01-06T03:07:51;101423.31;;;14.57;100.00
49377;BME280;35253;34.688;33.040;2023-01-06T03:10:17;101422.91;;;14.63;100.00
49377;BME280;35253;34.688;33.040;2023-01-06T03:12:50;101421.19;;;14.62;100.00
49377;BME280;35253;34.688;33.040;2023-01-06T03:15:16;101420.72;;;14.55;100.00
49377;BME280;35253;34.688;33.040;2023-01-06T03:17:42;101425.22;;;14.55;100.00
49377;BME280;35253;34.688;33.040;2023-01-06T03:20:08;101421.09;;;14.49;100.00
49377;BME280;35253;34.688;33.040;2023-01-06T03:22:34;101414.88;;;14.49;100.00
49377;BME280;35253;34.688;33.040;2023-01-06T03:25:03;101418.91;;;14.41;100.00
49377;BME280;35253;34.688;33.040;2023-01-06T03:27:28;101418.03;;;14.55;100.00
49377;BME280;35253;34.688;33.040;2023-01-06T03:29:54;101418.53;;;14.48;100.00
49377;BME280;35253;34.688;33.040;2023-01-06T03:32:26;101416.53;;;14.51;100.00
49377;BME280;35253;34.688;33.040;2023-01-06T03:42:46;101429.72;;;14.54;100.00
49377;BME280;35253;34.688;33.040;2023-01-06T03:45:53;101430.22;;;14.47;100.00
49377;BME280;35253;34.688;33.040;2023-01-06T03:48:35;101428.78;;;14.41;100.00
49377;BME280;35253;34.688;33.040;2023-01-06T03:58:56;101441.78;;;14.33;100.00
49377;BME280;35253;34.688;33.040;2023-01-06T04:01:22;101441.44;;;14.39;100.00
49377;BME280;35253;34.688;33.040;2023-01-06T04:03:52;101442.53;;;14.35;100.00
49377;BME280;35253;34.688;33.040;2023-01-06T04:06:20;101454.88;;;14.39;100.00
49377;BME280;35253;34.688;33.040;2023-01-06T04:08:45;101455.41;;;14.44;100.00
49377;BME280;35253;34.688;33.040;2023-01-06T04:11:10;101461.75;;;14.43;100.00
49377;BME280;35253;34.688;33.040;2023-01-06T04:13:54;101455.81;;;14.38;100.00
49377;BME280;35253;34.688;33.040;2023-01-06T04:16:20;101460.59;;;14.47;100.00
49377;BME280;35253;34.688;33.040;2023-01-06T04:18:46;101466.56;;;14.52;100.00
49377;BME280;35253;34.688;33.040;2023-01-06T04:21:11;101463.28;;;14.47;100.00
49377;BME280;35253;34.688;33.040;2023-01-06T04:23:36;101464.63;;;14.54;100.00
49377;BME280;35253;34.688;33.040;2023-01-06T04:26:02;101472.47;;;14.57;100.00
49377;BME280;35253;34.688;33.040;2023-01-06T04:28:27;101477.38;;;14.51;100.00
49377;BME280;35253;34.688;33.040;2023-01-06T04:30:56;101466.84;;;14.48;100.00
49377;BME280;35253;34.688;33.040;2023-01-06T04:33:21;101467.88;;;14.45;100.00
49377;BME280;35253;34.688;33.040;2023-01-06T04:35:47;101473.31;;;14.29;100.00
49377;BME280;35253;34.688;33.040;2023-01-06T04:38:12;101471.91;;;14.38;100.00
49377;BME280;35253;34.688;33.040;2023-01-06T04:40:37;101477.94;;;14.41;100.00
49377;BME280;35253;34.688;33.040;2023-01-06T04:43:03;101481.06;;;14.34;100.00
49377;BME280;35253;34.688;33.040;2023-01-06T04:45:28;101480.69;;;14.26;100.00
49377;BME280;35253;34.688;33.040;2023-01-06T04:47:54;101492.38;;;14.25;100.00
49377;BME280;35253;34.688;33.040;2023-01-06T04:50:20;101490.13;;;14.17;100.00
49377;BME280;35253;34.688;33.040;2023-01-06T04:52:45;101485.06;;;14.27;100.00
49377;BME280;35253;34.688;33.040;2023-01-06T04:55:11;101492.47;;;14.23;100.00
49377;BME280;35253;34.688;33.040;2023-01-06T04:57:37;101497.91;;;14.22;100.00
49377;BME280;35253;34.688;33.040;2023-01-06T05:00:02;101501.38;;;14.24;100.00
49377;BME280;35253;34.688;33.040;2023-01-06T05:02:28;101497.44;;;14.15;100.00
49377;BME280;35253;34.688;33.040;2023-01-06T05:04:53;101504.34;;;14.19;100.00
49377;BME280;35253;34.688;33.040;2023-01-06T05:07:19;101501.19;;;14.13;100.00
49377;BME280;35253;34.688;33.040;2023-01-06T05:09:44;101499.44;;;14.12;100.00
49377;BME280;35253;34.688;33.040;2023-01-06T05:12:10;101500.59;;;14.08;100.00
49377;BME280;35253;34.688;33.040;2023-01-06T05:14:35;101504.09;;;13.94;100.00
49377;BME280;35253;34.688;33.040;2023-01-06T05:17:01;101495.38;;;14.05;100.00
49377;BME280;35253;34.688;33.040;2023-01-06T05:19:26;101501.53;;;14.07;100.00
49377;BME280;35253;34.688;33.040;2023-01-06T05:21:51;101503.34;;;14.06;100.00
49377;BME280;35253;34.688;33.040;2023-01-06T05:24:17;101508.44;;;14.11;100.00
49377;BME280;35253;34.688;33.040;2023-01-06T05:26:42;101501.72;;;14.04;100.00
49377;BME280;35253;34.688;33.040;2023-01-06T05:29:08;101504.41;;;14.04;100.00
49377;BME280;35253;34.688;33.040;2023-01-06T05:31:36;101507.28;;;14.15;100.00
49377;BME280;35253;34.688;33.040;2023-01-06T05:34:02;101510.53;;;14.06;100.00
49377;BME280;35253;34.688;33.040;2023-01-06T05:36:27;101504.59;;;14.15;100.00
49377;BME280;35253;34.688;33.040;2023-01-06T05:38:53;101514.97;;;14.21;100.00
49377;BME280;35253;34.688;33.040;2023-01-06T05:41:18;101512.09;;;14.24;100.00
49377;BME280;35253;34.688;33.040;2023-01-06T05:43:44;101514.22;;;14.33;100.00
49377;BME280;35253;34.688;33.040;2023-01-06T05:46:10;101523.47;;;14.43;100.00
49377;BME280;35253;34.688;33.040;2023-01-06T05:48:36;101513.28;;;14.48;100.00
49377;BME280;35253;34.688;33.040;2023-01-06T05:51:05;101518.09;;;14.57;100.00
49377;BME280;35253;34.688;33.040;2023-01-06T05:53:35;101529.59;;;14.59;100.00
49377;BME280;35253;34.688;33.040;2023-01-06T05:56:01;101523.28;;;14.60;100.00
49377;BME280;35253;34.688;33.040;2023-01-06T05:58:27;101532.00;;;14.64;100.00
49377;BME280;35253;34.688;33.040;2023-01-06T06:00:52;101528.53;;;14.62;100.00
49377;BME280;35253;34.688;33.040;2023-01-06T06:03:18;101531.13;;;14.63;100.00
49377;BME280;35253;34.688;33.040;2023-01-06T06:05:43;101532.47;;;14.70;100.00
49377;BME280;35253;34.688;33.040;2023-01-06T06:08:08;101541.75;;;14.79;100.00
49377;BME280;35253;34.688;33.040;2023-01-06T06:10:34;101537.84;;;14.84;100.00
49377;BME280;35253;34.688;33.040;2023-01-06T06:12:59;101543.59;;;14.93;100.00
49377;BME280;35253;34.688;33.040;2023-01-06T06:15:25;101552.22;;;14.98;100.00
49377;BME280;35253;34.688;33.040;2023-01-06T06:17:50;101550.09;;;15.03;100.00
49377;BME280;35253;34.688;33.040;2023-01-06T06:20:16;101549.72;;;15.09;100.00
49377;BME280;35253;34.688;33.040;2023-01-06T06:22:41;101557.06;;;15.19;100.00
49377;BME280;35253;34.688;33.040;2023-01-06T06:25:07;101556.78;;;15.24;100.00
49377;BME280;35253;34.688;33.040;2023-01-06T06:27:32;101558.00;;;15.32;100.00
49377;BME280;35253;34.688;33.040;2023-01-06T06:29:58;101573.25;;;15.32;100.00
49377;BME280;35253;34.688;33.040;2023-01-06T06:32:23;101567.03;;;15.31;100.00
49377;BME280;35253;34.688;33.040;2023-01-06T06:34:48;101560.59;;;15.34;100.00
49377;BME280;35253;34.688;33.040;2023-01-06T06:37:14;101559.53;;;15.37;100.00
49377;BME280;35253;34.688;33.040;2023-01-06T06:39:39;101557.31;;;15.43;100.00
49377;BME280;35253;34.688;33.040;2023-01-06T06:42:05;101558.56;;;15.52;100.00
49377;BME280;35253;34.688;33.040;2023-01-06T06:44:30;101561.19;;;15.53;100.00
49377;BME280;35253;34.688;33.040;2023-01-06T06:46:56;101567.88;;;15.60;100.00
49377;BME280;35253;34.688;33.040;2023-01-06T06:49:22;101562.94;;;15.67;100.00
49377;BME280;35253;34.688;33.040;2023-01-06T06:51:47;101570.28;;;15.77;100.00
49377;BME280;35253;34.688;33.040;2023-01-06T06:54:13;101569.03;;;15.83;100.00
49377;BME280;35253;34.688;33.040;2023-01-06T06:56:38;101569.28;;;15.93;100.00
49377;BME280;35253;34.688;33.040;2023-01-06T06:59:04;101561.75;;;15.98;100.00
49377;BME280;35253;34.688;33.040;2023-01-06T07:01:29;101575.56;;;16.06;100.00
49377;BME280;35253;34.688;33.040;2023-01-06T07:03:56;101578.78;;;16.11;100.00
49377;BME280;35253;34.688;33.040;2023-01-06T07:06:22;101585.25;;;16.21;100.00
49377;BME280;35253;34.688;33.040;2023-01-06T07:08:48;101591.09;;;16.28;100.00
49377;BME280;35253;34.688;33.040;2023-01-06T07:11:14;101588.75;;;16.36;100.00
49377;BME280;35253;34.688;33.040;2023-01-06T07:13:39;101587.44;;;16.41;100.00
49377;BME280;35253;34.688;33.040;2023-01-06T07:16:05;101591.66;;;16.45;100.00
49377;BME280;35253;34.688;33.040;2023-01-06T07:18:31;101600.38;;;16.49;100.00
49377;BME280;35253;34.688;33.040;2023-01-06T07:20:56;101599.06;;;16.54;100.00
49377;BME280;35253;34.688;33.040;2023-01-06T07:23:22;101609.25;;;16.63;100.00
49377;BME280;35253;34.688;33.040;2023-01-06T07:25:51;101616.13;;;16.67;100.00
49377;BME280;35253;34.688;33.040;2023-01-06T07:28:17;101612.47;;;16.68;100.00
49377;BME280;35253;34.688;33.040;2023-01-06T07:30:42;101616.47;;;16.63;100.00
49377;BME280;35253;34.688;33.040;2023-01-06T07:33:08;101617.53;;;16.60;100.00
49377;BME280;35253;34.688;33.040;2023-01-06T07:35:33;101620.00;;;16.63;100.00
49377;BME280;35253;34.688;33.040;2023-01-06T07:38:02;101616.59;;;16.74;100.00
49377;BME280;35253;34.688;33.040;2023-01-06T07:40:28;101614.31;;;16.81;100.00
49377;BME280;35253;34.688;33.040;2023-01-06T07:42:54;101618.22;;;16.89;100.00
49377;BME280;35253;34.688;33.040;2023-01-06T07:45:19;101621.31;;;16.96;100.00
49377;BME280;35253;34.688;33.040;2023-01-06T07:47:44;101620.38;;;16.97;100.00
49377;BME280;35253;34.688;33.040;2023-01-06T07:50:10;101631.88;;;17.11;100.00
49377;BME280;35253;34.688;33.040;2023-01-06T07:52:35;101618.91;;;17.29;100.00
49377;BME280;35253;34.688;33.040;2023-01-06T07:55:01;101618.06;;;17.29;100.00
49377;BME280;35253;34.688;33.040;2023-01-06T07:57:26;101610.63;;;17.32;100.00
49377;BME280;35253;34.688;33.040;2023-01-06T07:59:52;101601.19;;;17.38;100.00
49377;BME280;35253;34.688;33.040;2023-01-06T08:02:18;101605.28;;;17.43;100.00
49377;BME280;35253;34.688;33.040;2023-01-06T08:04:43;101590.16;;;17.53;100.00
49377;BME280;35253;34.688;33.040;2023-01-06T08:07:08;101591.66;;;17.57;100.00
49377;BME280;35253;34.688;33.040;2023-01-06T08:09:34;101586.94;;;17.61;100.00
49377;BME280;35253;34.688;33.040;2023-01-06T08:11:59;101576.31;;;17.71;100.00
49377;BME280;35253;34.688;33.040;2023-01-06T08:14:25;101579.75;;;17.73;100.00
49377;BME280;35253;34.688;33.040;2023-01-06T08:16:50;101579.72;;;17.85;100.00
49377;BME280;35253;34.688;33.040;2023-01-06T08:19:16;101581.22;;;17.89;100.00
49377;BME280;35253;34.688;33.040;2023-01-06T08:21:41;101587.13;;;17.94;100.00
49377;BME280;35253;34.688;33.040;2023-01-06T08:24:07;101571.91;;;17.93;100.00
49377;BME280;35253;34.688;33.040;2023-01-06T08:26:32;101578.91;;;17.96;100.00
49377;BME280;35253;34.688;33.040;2023-01-06T08:28:58;101577.47;;;18.03;100.00
49377;BME280;35253;34.688;33.040;2023-01-06T08:31:23;101581.34;;;17.99;100.00
49377;BME280;35253;34.688;33.040;2023-01-06T08:33:49;101571.59;;;18.09;100.00
49377;BME280;35253;34.688;33.040;2023-01-06T08:36:16;101574.25;;;17.98;100.00
49377;BME280;35253;34.688;33.040;2023-01-06T08:38:42;101580.09;;;18.16;100.00
49377;BME280;35253;34.688;33.040;2023-01-06T08:41:08;101575.44;;;18.18;100.00
49377;BME280;35253;34.688;33.040;2023-01-06T08:43:34;101574.88;;;18.47;100.00
49377;BME280;35253;34.688;33.040;2023-01-06T08:46:00;101565.53;;;18.29;100.00
49377;BME280;35253;34.688;33.040;2023-01-06T08:48:26;101566.03;;;18.34;100.00
49377;BME280;35253;34.688;33.040;2023-01-06T08:50:51;101571.81;;;18.52;100.00
49377;BME280;35253;34.688;33.040;2023-01-06T08:53:17;101569.81;;;18.56;100.00
49377;BME280;35253;34.688;33.040;2023-01-06T08:55:42;101564.88;;;18.61;100.00
49377;BME280;35253;34.688;33.040;2023-01-06T08:58:08;101561.63;;;18.33;100.00
49377;BME280;35253;34.688;33.040;2023-01-06T09:00:34;101555.16;;;18.47;100.00
49377;BME280;35253;34.688;33.040;2023-01-06T09:03:00;101556.72;;;18.38;100.00
49377;BME280;35253;34.688;33.040;2023-01-06T09:05:26;101552.81;;;18.42;100.00
49377;BME280;35253;34.688;33.040;2023-01-06T09:07:51;101556.34;;;18.32;100.00
49377;BME280;35253;34.688;33.040;2023-01-06T09:10:17;101550.59;;;18.47;100.00
49377;BME280;35253;34.688;33.040;2023-01-06T09:12:43;101552.09;;;18.52;100.00
49377;BME280;35253;34.688;33.040;2023-01-06T09:15:08;101543.25;;;18.50;100.00
49377;BME280;35253;34.688;33.040;2023-01-06T09:17:34;101540.03;;;18.44;100.00
49377;BME280;35253;34.688;33.040;2023-01-06T09:19:59;101535.59;;;18.43;100.00
49377;BME280;35253;34.688;33.040;2023-01-06T09:22:25;101528.00;;;18.48;100.00
49377;BME280;35253;34.688;33.040;2023-01-06T09:24:50;101523.31;;;18.28;100.00
49377;BME280;35253;34.688;33.040;2023-01-06T09:27:16;101506.63;;;18.34;100.00
49377;BME280;35253;34.688;33.040;2023-01-06T09:29:41;101507.63;;;18.44;100.00
49377;BME280;35253;34.688;33.040;2023-01-06T09:32:07;101502.28;;;18.56;100.00
49377;BME280;35253;34.688;33.040;2023-01-06T09:34:32;101500.78;;;18.52;100.00
49377;BME280;35253;34.688;33.040;2023-01-06T09:36:58;101492.19;;;18.46;100.00
49377;BME280;35253;34.688;33.040;2023-01-06T09:39:23;101495.28;;;18.53;100.00
49377;BME280;35253;34.688;33.040;2023-01-06T09:44:39;101484.50;;;18.64;100.00
49377;BME280;35253;34.688;33.040;2023-01-06T09:47:05;101486.31;;;18.86;100.00
49377;BME280;35253;34.688;33.040;2023-01-06T09:52:32;101476.94;;;19.01;100.00
49377;BME280;35253;34.688;33.040;2023-01-06T09:55:02;101474.75;;;18.95;100.00
49377;BME280;35253;34.688;33.040;2023-01-06T09:57:40;101466.41;;;18.87;100.00
49377;BME280;35253;34.688;33.040;2023-01-06T10:00:32;101465.41;;;18.99;100.00
49377;BME280;35253;34.688;33.040;2023-01-06T10:02:53;101464.06;;;18.94;100.00
49377;BME280;35253;34.688;33.040;2023-01-06T10:07:57;101455.84;;;18.84;100.00
49377;BME280;35253;34.688;33.040;2023-01-06T10:20:42;101453.38;;;18.92;100.00
49377;BME280;35253;34.688;33.040;2023-01-06T10:25:59;101431.97;;;19.11;100.00
49377;BME280;35253;34.688;33.040;2023-01-06T10:28:33;101433.84;;;19.43;100.00
49377;BME280;35253;34.688;33.040;2023-01-06T10:31:00;101421.41;;;19.40;100.00
49377;BME280;35253;34.688;33.040;2023-01-06T10:33:28;101420.66;;;19.49;100.00
49377;BME280;35253;34.688;33.040;2023-01-06T10:35:55;101413.28;;;19.51;100.00
49377;BME280;35253;34.688;33.040;2023-01-06T10:38:22;101419.63;;;19.29;100.00
49377;BME280;35253;34.688;33.040;2023-01-06T10:40:48;101413.09;;;19.32;100.00
49377;BME280;35253;34.688;33.040;2023-01-06T10:43:14;101409.50;;;19.43;100.00
49377;BME280;35253;34.688;33.040;2023-01-06T10:45:41;101410.44;;;19.53;100.00
49377;BME280;35253;34.688;33.040;2023-01-06T10:48:11;101400.31;;;19.34;100.00
49377;BME280;35253;34.688;33.040;2023-01-06T10:50:37;101403.91;;;19.23;100.00
49377;BME280;35253;34.688;33.040;2023-01-06T10:53:03;101391.59;;;19.30;100.00
49377;BME280;35253;34.688;33.040;2023-01-06T11:03:34;101386.25;;;19.72;100.00
49377;BME280;35253;34.688;33.040;2023-01-06T11:06:01;101378.06;;;19.62;100.00
49377;BME280;35253;34.688;33.040;2023-01-06T11:08:27;101375.75;;;19.58;100.00
49377;BME280;35253;34.688;33.040;2023-01-06T11:10:53;101381.03;;;19.80;100.00
49377;BME280;35253;34.688;33.040;2023-01-06T11:13:35;101367.00;;;20.16;100.00
49377;BME280;35253;34.688;33.040;2023-01-06T11:16:02;101372.34;;;20.07;100.00
49377;BME280;35253;34.688;33.040;2023-01-06T11:18:29;101361.41;;;20.08;100.00
49377;BME280;35253;34.688;33.040;2023-01-06T11:21:05;101364.81;;;20.10;100.00
49377;BME280;35253;34.688;33.040;2023-01-06T11:23:32;101364.81;;;20.10;100.00
49377;BME280;35253;34.688;33.040;2023-01-06T11:26:01;101360.59;;;20.17;100.00
49377;BME280;35253;34.688;33.040;2023-01-06T11:28:27;101354.66;;;20.03;100.00
49377;BME280;35253;34.688;33.040;2023-01-06T11:30:54;101356.06;;;19.97;100.00
49377;BME280;35253;34.688;33.040;2023-01-06T11:33:21;101350.09;;;20.03;100.00
49377;BME280;35253;34.688;33.040;2023-01-06T11:35:47;101350.88;;;20.36;100.00
49377;BME280;35253;34.688;33.040;2023-01-06T11:38:14;101342.28;;;20.31;100.00
49377;BME280;35253;34.688;33.040;2023-01-06T11:40:41;101353.81;;;20.33;100.00
49377;BME280;35253;34.688;33.040;2023-01-06T11:43:08;101349.72;;;20.08;100.00
49377;BME280;35253;34.688;33.040;2023-01-06T11:45:44;101352.13;;;20.11;100.00
49377;BME280;35253;34.688;33.040;2023-01-06T11:48:13;101362.38;;;20.07;100.00
49377;BME280;35253;34.688;33.040;2023-01-06T11:50:40;101351.91;;;20.23;100.00
49377;BME280;35253;34.688;33.040;2023-01-06T11:53:17;101348.94;;;20.27;100.00
49377;BME280;35253;34.688;33.040;2023-01-06T11:55:58;101360.72;;;20.16;100.00
49377;BME280;35253;34.688;33.040;2023-01-06T12:01:14;101351.75;;;20.55;100.00
49377;BME280;35253;34.688;33.040;2023-01-06T12:03:41;101369.28;;;20.21;100.00
49377;BME280;35253;34.688;33.040;2023-01-06T12:06:13;101356.78;;;20.60;100.00
49377;BME280;35253;34.688;33.040;2023-01-06T12:13:39;101345.19;;;20.18;100.00
49377;BME280;35253;34.688;33.040;2023-01-06T12:16:06;101352.34;;;20.29;100.00
49377;BME280;35253;34.688;33.040;2023-01-06T12:18:36;101350.81;;;20.05;100.00
49377;BME280;35253;34.688;33.040;2023-01-06T12:21:03;101349.38;;;20.01;100.00
49377;BME280;35253;34.688;33.040;2023-01-06T12:23:33;101346.03;;;20.18;100.00
49377;BME280;35253;34.688;33.040;2023-01-06T12:26:03;101355.69;;;20.11;100.00
49377;BME280;35253;34.688;33.040;2023-01-06T12:28:36;101354.56;;;20.35;100.00
49377;BME280;35253;34.688;33.040;2023-01-06T12:41:39;101343.78;;;20.23;100.00
49377;BME280;35253;34.688;33.040;2023-01-06T12:46:50;101343.06;;;20.21;100.00
49377;BME280;35253;34.688;33.040;2023-01-06T12:49:22;101342.06;;;20.53;100.00
49377;BME280;35253;34.688;33.040;2023-01-06T12:51:55;101351.25;;;20.71;100.00
49377;BME280;35253;34.688;33.040;2023-01-06T12:54:32;101348.84;;;21.06;100.00
49377;BME280;35253;34.688;33.040;2023-01-06T13:04:46;101353.34;;;20.67;100.00
49377;BME280;35253;34.688;33.040;2023-01-06T13:17:21;101356.38;;;20.74;100.00
49377;BME280;35253;34.688;33.040;2023-01-06T13:19:50;101350.66;;;20.67;100.00
49377;BME280;35253;34.688;33.040;2023-01-06T13:22:32;101353.44;;;21.16;100.00
49377;BME280;35253;34.688;33.040;2023-01-06T13:25:21;101356.72;;;21.09;100.00
49377;BME280;35253;34.688;33.040;2023-01-06T13:27:53;101349.88;;;21.15;100.00
49377;BME280;35253;34.688;33.040;2023-01-06T13:33:25;101352.06;;;23.51;97.69
49377;BME280;35253;34.688;33.040;2023-01-06T13:35:49;101351.72;;;24.31;91.71
49377;BME280;35253;34.688;33.040;2023-01-06T13:38:33;101371.50;;;24.33;87.84
49377;BME280;35253;34.688;33.040;2023-01-06T13:41:01;101344.78;;;24.11;88.06
49377;BME280;35253;34.688;33.040;2023-01-06T13:43:29;101337.31;;;24.39;85.36
49377;BME280;35253;34.688;33.040;2023-01-06T13:45:58;101339.88;;;24.98;82.32
49377;BME280;35253;34.688;33.040;2023-01-06T13:48:28;101337.84;;;24.50;83.88
49377;BME280;35253;34.688;33.040;2023-01-06T13:50:55;101344.47;;;24.14;84.86
49377;BME280;35253;34.688;33.040;2023-01-06T13:53:21;101344.72;;;23.69;87.74
49377;BME280;35253;34.688;33.040;2023-01-06T13:55:46;101345.66;;;23.42;89.01
49377;BME280;35253;34.688;33.040;2023-01-06T14:03:37;101352.97;;;23.06;89.79
49377;BME280;35253;34.688;33.040;2023-01-06T14:06:08;101354.31;;;23.55;86.02
49377;BME280;35253;34.688;33.040;2023-01-06T14:08:38;101361.00;;;23.87;82.25
49377;BME280;35253;34.688;33.040;2023-01-06T14:11:21;101365.16;;;24.58;77.70
49377;BME280;35253;34.688;33.040;2023-01-06T14:13:50;101375.69;;;24.19;79.57
49377;BME280;35253;34.688;33.040;2023-01-06T14:16:16;101375.38;;;23.53;82.52
49377;BME280;35253;34.688;33.040;2023-01-06T14:18:46;101355.53;;;23.43;84.21
49377;BME280;35253;34.688;33.040;2023-01-06T14:21:26;101356.75;;;23.66;82.50
49377;BME280;35253;34.688;33.040;2023-01-06T14:23:58;101364.94;;;22.41;87.32
49377;BME280;35253;34.688;33.040;2023-01-06T14:26:44;101375.03;;;21.36;92.20
49377;BME280;35253;34.688;33.040;2023-01-06T14:31:53;101372.03;;;20.00;100.00
49377;BME280;35253;34.688;33.040;2023-01-06T14:34:19;101378.25;;;19.70;100.00